Monday, December 22, 2014
20:36 UTC
  |  Log In   |  Register Free
Airport Search:

South Big Horn County Airport
(KGEY)

South Big Horn County Airport Diagram
No Airport Diagram Available

FAA data valid effective November 13, 2014 - January 08, 2015 (unless otherwise noted).

 
 
 
 
 
 
 
 
 
 
 
 
 
 

Current Aviation Weather for South Big Horn County Airport (KGEY)

The most recent METAR observation for KGEY was updated at: 2114
METAR Summary (Translated METAR)
KGEY
182053Z AUTO 00000KT 10SM CLR M03/M08 A3005 RMK AO2 SLP231 T10331083 56016
KU68
182055Z AUTO 00000KT 10SM CLR M03/M06 A3003 RMK AO2 PWINO
(28.3 nm NW from KGEY)
KWRL
182053Z AUTO 00000KT 10SM CLR M07/M10 A3003 RMK AO2 SLP248 T10721100 56015
(33.8 nm SE from KGEY)
TAF Summary (Translated TAF)
KWRL
(33.8 nm SE from KGEY)
221720Z 2218/2318 21008KT 5SM -SHSN SCT035 BKN060 TEMPO 2218/2222 2SM -SHSN SCT011 OVC020 FM222200 33012G18KT P6SM VCSH OVC050 FM230500 30008KT P6SM SCT100
  Airport Weather Conditions for KGEY

Current weather conditions are
not available for GEY


The nearest NOAA weather station
is at U68, (28.3 nm NW from GEY)
  
 Current Weather at U68
34° F
Overcast and Windy
Northwest winds at 31.1 mph
U68 NOAA Radar

Pressure: 29.82 in
Humidity: 87%
Wind: from the Northwest at 31.1 gusting to 42.6 MPH (27 gusting to 37 KT)
Dew Point: 30.2°F
Visibility: 5.00 mi


Airport Weather Forecast for KGEY

Translated METAR and TAF for KGEY
Translated METAR for KGEY (2037 UTC 22 December 2014)
found at http://aviationweather.gov/adds/metars/
 
METAR text: KGEY 221953Z AUTO 33011KT 10SM FEW035 BKN043 OVC060 01/M01 A2981 RMK AO2 PK WND 33029/1920 SNE1857B34E45 SLP123 P0000 T00111011
Conditions at: KGEY (GREYBULL , WY, US) observed 1953 UTC 22 December 2014
Temperature: 1.1°C (34°F)
Dewpoint: -1.1°C (30°F) [RH = 85%]
Pressure (altimeter): 29.81 inches Hg (1009.6 mb)
[Sea-level pressure: 1012.3 mb]
Winds: from the NNW (330 degrees) at 13 MPH (11 knots; 5.7 m/s)
Visibility: 10 or more miles (16+ km)
Ceiling: 4300 feet AGL
Clouds: few clouds at 3500 feet AGL
broken clouds at 4300 feet AGL
overcast cloud deck at 6000 feet AGL
Weather: automated observation with no human augmentation;
there may or may not be significant weather present at this time
Translated TAF for KGEY

There is no translated TAF available for this airport

Find All Airport Services Find A Hotel Find A Rental Car Find A Golf Course Find A Restaurant $100 Hamburger



FBO's on the Field
FBO Company Facility Photos Services Transportation Aviation Fuel Prices: Prices include tax
Catering Weather Repair Courtesy Rental Type 100LL JetA JetA+ MOGAS 8087
 
B & G Industries, LLC

This FBO has not yet been rated
FS:Independent
Last Updated: Nov-24
Login to update fuel prices
SS:
Contact B & G Industries, LLCMore FBO Information
 
South Big Horn County Airport

This FBO has not yet been rated
FS:Independent
Last Updated: Nov-26
Login to update fuel prices
SS:
Contact South Big Horn County AirportMore FBO Information
 
Add another FBO Facility Photos Catering Weather Repair Courtesy Rental Type 100LL JetA JetA+ MOGAS 8087
Services Transportation Aviation Fuel Prices: Prices include tax


model-print
model-print
model-print
model-print